createdAt,value
2023-04-23T00:02:26.811Z,2.70
2023-04-23T00:04:55.395Z,3.33
2023-04-23T00:07:23.626Z,3.47
2023-04-23T00:09:53.428Z,2.20
2023-04-23T00:12:21.898Z,2.43
2023-04-23T00:14:49.951Z,2.53
2023-04-23T00:17:19.616Z,2.80
2023-04-23T00:19:48.088Z,3.17
2023-04-23T00:22:17.932Z,2.43
2023-04-23T00:24:45.693Z,2.87
2023-04-23T00:27:13.657Z,2.37
2023-04-23T00:29:41.998Z,2.77
2023-04-23T00:32:09.850Z,2.60
2023-04-23T00:34:39.136Z,3.97
2023-04-23T00:37:07.870Z,3.20
2023-04-23T00:39:37.470Z,3.90
2023-04-23T00:42:11.386Z,4.27
2023-04-23T00:44:40.000Z,2.77
2023-04-23T00:47:08.529Z,2.97
2023-04-23T00:49:39.218Z,3.50
2023-04-23T00:52:07.135Z,3.10
2023-04-23T00:54:34.944Z,4.47
2023-04-23T00:57:03.544Z,3.17
2023-04-23T00:59:32.571Z,3.70
2023-04-23T01:02:00.727Z,4.20
2023-04-23T01:04:30.531Z,3.13
2023-04-23T01:07:00.706Z,2.70
2023-04-23T01:09:28.761Z,2.63
2023-04-23T01:11:57.859Z,3.57
2023-04-23T01:14:25.678Z,2.50
2023-04-23T01:16:53.840Z,2.70
2023-04-23T01:19:21.722Z,4.07
2023-04-23T01:21:51.404Z,2.70
2023-04-23T01:24:20.530Z,4.53
2023-04-23T01:26:48.286Z,3.10
2023-04-23T01:29:16.322Z,4.00
2023-04-23T01:31:44.615Z,3.33
2023-04-23T01:34:13.036Z,2.80
2023-04-23T01:36:42.493Z,3.97
2023-04-23T01:39:10.443Z,3.07
2023-04-23T01:41:40.037Z,2.67
2023-04-23T01:44:08.223Z,4.77
2023-04-23T01:46:36.196Z,3.20
2023-04-23T01:49:04.416Z,3.07
2023-04-23T01:51:32.266Z,3.00
2023-04-23T01:54:00.047Z,3.10
2023-04-23T01:56:30.531Z,2.97
2023-04-23T01:58:59.623Z,3.37
2023-04-23T02:01:27.475Z,3.50
2023-04-23T02:03:55.619Z,3.77
2023-04-23T02:06:23.552Z,3.80
2023-04-23T02:08:51.524Z,5.53
2023-04-23T02:11:19.293Z,4.43
2023-04-23T02:13:47.072Z,3.87
2023-04-23T02:16:16.222Z,4.97
2023-04-23T02:18:44.000Z,5.10
2023-04-23T02:21:13.000Z,3.87
2023-04-23T02:23:40.795Z,3.80
2023-04-23T02:26:08.798Z,3.63
2023-04-23T02:28:36.623Z,3.50
2023-04-23T02:31:04.509Z,4.53
2023-04-23T02:33:33.666Z,3.50
2023-04-23T02:36:01.592Z,4.37
2023-04-23T02:38:29.388Z,3.47
2023-04-23T02:40:57.145Z,3.43
2023-04-23T02:43:24.932Z,3.23
2023-04-23T02:45:52.692Z,3.57
2023-04-23T02:48:21.341Z,3.33
2023-04-23T02:50:50.501Z,3.17
2023-04-23T02:53:18.262Z,3.23
2023-04-23T02:55:45.994Z,3.10
2023-04-23T02:58:13.880Z,2.97
2023-04-23T03:00:41.849Z,4.43
2023-04-23T03:03:12.364Z,3.40
2023-04-23T03:05:40.509Z,3.03
2023-04-23T03:08:09.713Z,3.87
2023-04-23T03:10:37.616Z,3.30
2023-04-23T03:13:05.507Z,3.73
2023-04-23T03:15:33.257Z,3.13
2023-04-23T03:18:01.583Z,3.17
2023-04-23T03:20:29.387Z,3.70
2023-04-23T03:22:57.135Z,2.53
2023-04-23T03:25:26.622Z,2.93
2023-04-23T03:27:54.591Z,2.93
2023-04-23T03:30:22.522Z,2.90
2023-04-23T03:32:51.492Z,3.27
2023-04-23T03:35:19.271Z,2.97
2023-04-23T03:37:47.079Z,2.50
2023-04-23T03:40:14.895Z,3.00
2023-04-23T03:42:44.011Z,3.03
2023-04-23T03:45:13.249Z,4.80
2023-04-23T03:47:41.076Z,3.97
2023-04-23T03:50:10.055Z,2.80
2023-04-23T03:52:37.814Z,4.50
2023-04-23T03:55:06.072Z,2.87
2023-04-23T03:57:33.885Z,3.40
2023-04-23T04:00:03.363Z,2.60
2023-04-23T04:02:31.298Z,3.30
2023-04-23T04:04:59.379Z,4.93
2023-04-23T04:07:28.242Z,3.67
2023-04-23T04:09:56.012Z,3.07
2023-04-23T04:12:23.861Z,3.40
2023-04-23T04:14:51.641Z,3.13
2023-04-23T04:17:20.812Z,4.90
2023-04-23T04:19:48.595Z,4.43
2023-04-23T04:22:16.617Z,3.17
2023-04-23T04:24:47.288Z,2.87
2023-04-23T04:27:15.645Z,3.37
2023-04-23T04:29:43.408Z,4.00
2023-04-23T04:32:11.499Z,4.27
2023-04-23T04:34:40.762Z,4.03
2023-04-23T04:37:09.885Z,5.50
2023-04-23T04:39:37.637Z,4.97
2023-04-23T04:42:07.148Z,4.17
2023-04-23T04:44:37.268Z,5.70
2023-04-23T04:47:05.206Z,3.93
2023-04-23T04:49:33.067Z,4.37
2023-04-23T04:52:02.215Z,3.90
2023-04-23T04:54:29.944Z,3.07
2023-04-23T04:56:57.952Z,3.13
2023-04-23T04:59:25.770Z,2.87
2023-04-23T05:01:53.559Z,3.50
2023-04-23T05:04:21.379Z,4.10
2023-04-23T05:06:49.172Z,3.70
2023-04-23T05:09:18.280Z,4.10
2023-04-23T05:11:46.024Z,5.80
2023-04-23T05:14:13.799Z,3.23
2023-04-23T05:16:41.594Z,3.73
2023-04-23T05:19:09.677Z,3.53
2023-04-23T05:21:37.521Z,3.07
2023-04-23T05:24:05.586Z,3.13
2023-04-23T05:26:34.692Z,4.07
2023-04-23T05:29:02.525Z,3.33
2023-04-23T05:31:30.345Z,3.20
2023-04-23T05:33:58.135Z,2.97
2023-04-23T05:36:25.919Z,3.17
2023-04-23T05:38:53.744Z,2.83
2023-04-23T05:41:21.518Z,9.07
2023-04-23T05:43:50.614Z,3.90
2023-04-23T05:46:18.385Z,4.20
2023-04-23T05:48:46.133Z,3.33
2023-04-23T05:51:14.501Z,4.87
2023-04-23T05:53:42.242Z,4.17
2023-04-23T05:56:09.961Z,4.17
2023-04-23T05:58:38.686Z,4.17
2023-04-23T06:01:08.487Z,3.53
2023-04-23T06:03:38.014Z,3.13
2023-04-23T06:06:06.177Z,3.43
2023-04-23T06:08:33.951Z,3.90
2023-04-23T06:11:01.936Z,3.77
2023-04-23T06:13:30.766Z,3.47
2023-04-23T06:15:58.678Z,4.10
2023-04-23T06:18:28.100Z,2.63
2023-04-23T06:20:56.880Z,3.20
2023-04-23T06:23:24.645Z,3.27
2023-04-23T06:25:52.402Z,3.60
2023-04-23T06:28:20.142Z,3.23
2023-04-23T06:30:47.887Z,2.70
2023-04-23T06:33:15.794Z,3.70
2023-04-23T06:35:46.660Z,3.30
2023-04-23T06:38:15.044Z,3.73
2023-04-23T06:40:42.840Z,4.43
2023-04-23T06:43:10.584Z,2.83
2023-04-23T06:45:38.333Z,2.60
2023-04-23T06:48:06.175Z,3.93
2023-04-23T06:50:33.953Z,3.00
2023-04-23T06:53:03.069Z,2.87
2023-04-23T06:55:31.115Z,3.37
2023-04-23T06:57:58.910Z,3.40
2023-04-23T07:00:26.903Z,3.87
2023-04-23T07:02:54.729Z,2.53
2023-04-23T07:05:22.755Z,2.53
2023-04-23T07:07:50.607Z,3.83
2023-04-23T07:10:19.987Z,3.30
2023-04-23T07:12:47.764Z,3.30
2023-04-23T07:15:15.613Z,4.10
2023-04-23T07:17:43.474Z,2.60
2023-04-23T07:20:12.033Z,3.00
2023-04-23T07:22:39.771Z,3.47
2023-04-23T07:25:08.591Z,2.90
2023-04-23T07:27:37.997Z,4.20
2023-04-23T07:30:07.113Z,3.73
2023-04-23T07:32:34.910Z,4.43
2023-04-23T07:35:02.697Z,4.37
2023-04-23T07:37:30.435Z,3.83
2023-04-23T07:39:58.179Z,3.80
2023-04-23T07:42:25.984Z,3.43
2023-04-23T07:44:55.161Z,5.43
2023-04-23T07:47:23.078Z,3.27
2023-04-23T07:49:50.972Z,3.27
2023-04-23T07:52:18.753Z,3.50
2023-04-23T07:54:47.074Z,3.63
2023-04-23T07:57:14.829Z,4.63
2023-04-23T07:59:43.114Z,4.10
2023-04-23T08:02:12.560Z,4.53
2023-04-23T08:04:40.559Z,4.67
2023-04-23T08:07:08.415Z,3.50
2023-04-23T08:09:36.198Z,3.00
2023-04-23T08:12:04.064Z,2.47
2023-04-23T08:14:31.785Z,2.50
2023-04-23T08:16:59.579Z,2.10
2023-04-23T08:19:32.024Z,2.20
2023-04-23T08:21:59.828Z,3.03
2023-04-23T08:24:27.818Z,2.97
2023-04-23T08:26:55.592Z,1.90
2023-04-23T08:29:23.344Z,1.67
2023-04-23T08:31:51.252Z,1.80
2023-04-23T08:34:19.052Z,2.07
2023-04-23T08:36:49.324Z,1.80
2023-04-23T08:39:17.095Z,1.80
2023-04-23T08:41:47.957Z,1.50
2023-04-23T08:44:20.469Z,1.87
2023-04-23T08:46:49.112Z,2.30
2023-04-23T08:49:19.058Z,2.00
2023-04-23T08:51:51.080Z,2.10
2023-04-23T08:54:23.571Z,1.50
2023-04-23T08:56:52.694Z,1.83
2023-04-23T08:59:22.906Z,1.77
2023-04-23T09:01:51.052Z,1.80
2023-04-23T09:04:20.438Z,2.27
2023-04-23T09:06:50.214Z,2.30
2023-04-23T09:09:18.503Z,3.10
2023-04-23T09:11:46.539Z,2.83
2023-04-23T09:14:14.832Z,3.07
2023-04-23T09:16:42.846Z,2.40
2023-04-23T09:19:11.778Z,2.50
2023-04-23T09:21:40.388Z,2.37
2023-04-23T09:24:12.364Z,2.27
2023-04-23T09:26:46.652Z,1.97
2023-04-23T09:29:17.363Z,1.87
2023-04-23T09:31:45.743Z,1.60
2023-04-23T09:34:13.946Z,1.60
2023-04-23T09:36:41.690Z,2.10
2023-04-23T09:39:14.512Z,1.57
2023-04-23T09:41:42.642Z,2.30
2023-04-23T09:44:12.230Z,1.50
2023-04-23T09:46:42.080Z,1.50
2023-04-23T09:49:11.413Z,1.10
2023-04-23T09:51:40.516Z,1.23
2023-04-23T09:54:14.394Z,1.10
2023-04-23T09:56:42.647Z,1.07
2023-04-23T09:59:35.493Z,0.80
2023-04-23T10:02:12.405Z,1.33
2023-04-23T10:04:41.809Z,0.80
2023-04-23T10:09:45.833Z,0.87
2023-04-23T10:14:49.099Z,0.70
2023-04-23T10:17:17.508Z,0.80
2023-04-23T10:19:45.923Z,1.10
2023-04-23T10:22:19.882Z,1.00
2023-04-23T10:24:55.729Z,0.63
2023-04-23T10:27:36.861Z,1.23
2023-04-23T10:30:15.589Z,1.47
2023-04-23T10:32:45.030Z,1.20
2023-04-23T10:35:12.917Z,1.10
2023-04-23T10:37:41.668Z,1.83
2023-04-23T10:40:14.341Z,1.37
2023-04-23T10:42:43.808Z,2.40
2023-04-23T10:47:49.397Z,1.60
2023-04-23T10:50:23.381Z,8.03
2023-04-23T10:52:53.999Z,3.23
2023-04-23T10:55:24.553Z,4.23
2023-04-23T10:58:02.001Z,7.17
2023-04-23T11:00:42.839Z,1.47
2023-04-23T11:03:31.042Z,2.03
2023-04-23T11:06:01.689Z,1.30
2023-04-23T11:08:31.879Z,1.90
2023-04-23T11:11:02.583Z,1.37
2023-04-23T11:13:30.946Z,2.10
2023-04-23T11:16:15.476Z,1.40
2023-04-23T11:18:58.987Z,1.47
2023-04-23T11:21:56.852Z,1.67
2023-04-23T11:24:24.668Z,1.50
2023-04-23T11:26:54.640Z,2.30
2023-04-23T11:29:23.726Z,1.87
2023-04-23T11:32:01.761Z,1.63
2023-04-23T11:34:31.747Z,1.50
2023-04-23T11:37:00.657Z,1.20
2023-04-23T11:39:28.625Z,1.77
2023-04-23T11:41:59.186Z,1.20
2023-04-23T11:44:26.960Z,1.37
2023-04-23T11:49:22.908Z,1.03
2023-04-23T11:51:50.706Z,1.33
2023-04-23T11:54:19.967Z,1.10
2023-04-23T11:56:47.715Z,0.90
2023-04-23T11:59:16.803Z,1.03
2023-04-23T12:01:46.697Z,1.37
2023-04-23T12:04:16.296Z,1.10
2023-04-23T12:06:46.768Z,1.70
2023-04-23T12:09:15.790Z,1.10
2023-04-23T12:11:45.439Z,1.30
2023-04-23T12:14:15.448Z,1.27
2023-04-23T12:16:46.915Z,1.27
2023-04-23T12:19:16.237Z,1.27
2023-04-23T12:21:54.384Z,1.03
2023-04-23T12:24:23.713Z,0.80
2023-04-23T12:26:54.445Z,1.00
2023-04-23T12:29:23.064Z,1.80
2023-04-23T12:31:53.102Z,0.67
2023-04-23T12:34:21.796Z,1.00
2023-04-23T12:36:51.493Z,0.60
2023-04-23T12:39:24.495Z,1.53
2023-04-23T12:41:53.216Z,1.07
2023-04-23T12:44:21.501Z,0.80
2023-04-23T12:46:57.690Z,1.83
2023-04-23T12:49:26.922Z,1.00
2023-04-23T12:51:57.201Z,1.93
2023-04-23T12:54:26.467Z,1.10
2023-04-23T12:56:54.596Z,0.80
2023-04-23T12:59:22.484Z,1.37
2023-04-23T13:01:52.786Z,0.80
2023-04-23T13:04:20.910Z,0.90
2023-04-23T13:06:49.794Z,1.10
2023-04-23T13:09:17.555Z,0.70
2023-04-23T13:11:46.840Z,0.70
2023-04-23T13:14:14.604Z,1.10
2023-04-23T13:16:42.871Z,0.90
2023-04-23T13:19:12.952Z,0.80
2023-04-23T13:21:40.930Z,0.80
2023-04-23T13:24:08.740Z,0.80
2023-04-23T13:26:37.098Z,0.80
2023-04-23T13:29:05.045Z,0.83
2023-04-23T13:31:32.858Z,1.10
2023-04-23T13:34:01.402Z,1.17
2023-04-23T13:36:30.715Z,0.97
2023-04-23T13:38:58.659Z,0.73
2023-04-23T13:41:26.392Z,0.70
2023-04-23T13:43:54.150Z,0.70
2023-04-23T13:46:22.020Z,0.70
2023-04-23T13:48:49.845Z,0.60
2023-04-23T13:51:33.272Z,0.60
2023-04-23T13:54:04.694Z,0.90
2023-04-23T13:56:32.748Z,0.50
2023-04-23T13:59:17.974Z,0.50
2023-04-23T14:01:47.047Z,1.40
2023-04-23T14:04:15.066Z,0.80
2023-04-23T14:06:43.083Z,0.70
2023-04-23T14:09:12.363Z,2.37
2023-04-23T14:11:41.251Z,2.83
2023-04-23T14:14:09.043Z,1.67
2023-04-23T14:16:36.866Z,1.63
2023-04-23T14:19:04.610Z,2.13
2023-04-23T14:21:32.443Z,1.30
2023-04-23T14:24:03.398Z,1.77
2023-04-23T14:26:47.813Z,1.30
2023-04-23T14:29:25.120Z,1.40
2023-04-23T14:31:53.169Z,1.20
2023-04-23T14:34:21.023Z,0.60
2023-04-23T14:36:49.413Z,1.03
2023-04-23T14:39:17.626Z,1.00
2023-04-23T14:41:46.806Z,0.90
2023-04-23T14:44:14.624Z,0.80
2023-04-23T14:46:42.362Z,0.63
2023-04-23T14:49:10.186Z,0.60
2023-04-23T14:51:38.302Z,0.60
2023-04-23T14:54:06.413Z,0.87
2023-04-23T14:56:34.208Z,0.60
2023-04-23T14:59:03.484Z,0.70
2023-04-23T15:01:31.453Z,0.70
2023-04-23T15:03:59.424Z,0.90
2023-04-23T15:06:27.460Z,0.80
2023-04-23T15:08:55.222Z,0.70
2023-04-23T15:11:23.027Z,0.90
2023-04-23T15:13:55.998Z,0.70
2023-04-23T15:16:47.665Z,0.67
2023-04-23T15:19:18.782Z,1.27
2023-04-23T15:21:47.176Z,0.67
2023-04-23T15:24:15.307Z,1.33
2023-04-23T15:26:43.193Z,0.70
2023-04-23T15:29:11.271Z,0.70
2023-04-23T15:31:40.634Z,0.60
2023-04-23T15:34:09.495Z,1.80
2023-04-23T15:36:38.362Z,1.00
2023-04-23T15:39:07.222Z,0.80
2023-04-23T15:41:38.560Z,0.70
2023-04-23T15:44:10.655Z,1.10
2023-04-23T15:46:39.808Z,0.63
2023-04-23T15:49:07.583Z,0.80
2023-04-23T15:51:35.359Z,0.67
2023-04-23T15:54:03.158Z,1.03
2023-04-23T15:56:30.953Z,0.87
2023-04-23T15:58:58.774Z,1.57
2023-04-23T16:01:27.613Z,0.80
2023-04-23T16:04:08.656Z,0.60
2023-04-23T16:06:38.387Z,0.50
2023-04-23T16:09:08.211Z,1.20
2023-04-23T16:11:36.548Z,1.07
2023-04-23T16:14:04.853Z,0.80
2023-04-23T16:16:32.801Z,0.80
2023-04-23T16:19:03.152Z,0.80
2023-04-23T16:21:31.129Z,1.53
2023-04-23T16:23:58.896Z,0.93
2023-04-23T16:26:26.733Z,1.27
2023-04-23T16:29:05.411Z,0.70
2023-04-23T16:31:42.370Z,0.60
2023-04-23T16:34:11.450Z,0.73
2023-04-23T16:36:39.360Z,1.47
2023-04-23T16:39:07.080Z,1.27
2023-04-23T16:41:34.833Z,0.90
2023-04-23T16:44:02.621Z,0.70
2023-04-23T16:46:31.646Z,0.70
2023-04-23T16:48:59.983Z,0.70
2023-04-23T16:51:29.429Z,0.80
2023-04-23T16:53:57.668Z,1.33
2023-04-23T16:56:25.722Z,1.03
2023-04-23T16:58:53.549Z,0.73
2023-04-23T17:01:21.329Z,0.80
2023-04-23T17:03:49.332Z,0.77
2023-04-23T17:06:25.526Z,0.80
2023-04-23T17:08:54.842Z,0.60
2023-04-23T17:11:22.783Z,1.90
2023-04-23T17:13:50.572Z,2.33
2023-04-23T17:16:18.420Z,1.03
2023-04-23T17:18:46.425Z,1.10
2023-04-23T17:21:14.513Z,1.00
2023-04-23T17:23:42.278Z,1.10
2023-04-23T17:26:11.357Z,1.37
2023-04-23T17:28:40.529Z,0.93
2023-04-23T17:31:08.635Z,1.63
2023-04-23T17:33:37.034Z,4.07
2023-04-23T17:36:05.649Z,0.57
2023-04-23T17:38:34.258Z,1.50
2023-04-23T17:41:03.321Z,0.67
2023-04-23T17:43:34.719Z,1.23
2023-04-23T17:46:02.994Z,2.10
2023-04-23T17:48:30.988Z,1.30
2023-04-23T17:50:58.839Z,2.10
2023-04-23T17:53:26.624Z,1.43
2023-04-23T17:55:58.457Z,1.50
2023-04-23T17:58:26.712Z,1.53
2023-04-23T18:00:55.834Z,1.40
2023-04-23T18:03:23.921Z,2.77
2023-04-23T18:05:52.100Z,2.23
2023-04-23T18:08:21.108Z,3.83
2023-04-23T18:10:49.049Z,2.90
2023-04-23T18:13:16.988Z,2.30
2023-04-23T18:15:49.301Z,2.23
2023-04-23T18:18:18.875Z,1.90
2023-04-23T18:20:47.313Z,2.10
2023-04-23T18:23:15.143Z,2.10
2023-04-23T18:25:42.965Z,1.87
2023-04-23T18:28:10.768Z,3.10
2023-04-23T18:30:39.024Z,3.03
2023-04-23T18:33:12.574Z,4.83
2023-04-23T18:35:43.837Z,2.27
2023-04-23T18:38:22.577Z,2.10
2023-04-23T18:40:50.338Z,1.73
2023-04-23T18:43:18.614Z,2.50
2023-04-23T18:45:46.446Z,1.30
2023-04-23T18:48:41.267Z,1.63
2023-04-23T18:51:21.166Z,1.93
2023-04-23T18:53:49.284Z,1.83
2023-04-23T18:56:17.122Z,1.53
2023-04-23T18:58:44.919Z,2.50
2023-04-23T19:01:12.695Z,1.87
2023-04-23T19:03:40.605Z,2.00
2023-04-23T19:06:08.509Z,3.03
2023-04-23T19:08:37.751Z,1.80
2023-04-23T19:11:06.154Z,2.90
2023-04-23T19:13:33.920Z,1.93
2023-04-23T19:16:01.742Z,4.20
2023-04-23T19:18:29.652Z,3.20
2023-04-23T19:20:58.088Z,3.30
2023-04-23T19:23:25.922Z,2.17
2023-04-23T19:25:54.977Z,2.00
2023-04-23T19:28:24.342Z,3.00
2023-04-23T19:30:52.130Z,2.97
2023-04-23T19:33:19.899Z,2.50
2023-04-23T19:35:47.661Z,2.97
2023-04-23T19:38:15.525Z,3.57
2023-04-23T19:40:43.372Z,1.23
2023-04-23T19:43:12.930Z,1.13
2023-04-23T19:45:40.798Z,1.77
2023-04-23T19:48:08.662Z,1.90
2023-04-23T19:50:36.755Z,1.67
2023-04-23T19:53:06.141Z,1.47
2023-04-23T19:55:33.941Z,1.10
2023-04-23T19:58:06.078Z,1.50
2023-04-23T20:00:39.268Z,1.30
2023-04-23T20:03:07.925Z,1.57
2023-04-23T20:05:35.838Z,1.17
2023-04-23T20:08:06.784Z,2.17
2023-04-23T20:10:34.576Z,2.60
2023-04-23T20:13:02.552Z,1.57
2023-04-23T20:15:30.317Z,1.77
2023-04-23T20:17:59.647Z,2.97
2023-04-23T20:20:27.610Z,1.40
2023-04-23T20:22:55.365Z,3.10
2023-04-23T20:25:25.568Z,2.13
2023-04-23T20:27:53.984Z,1.50
2023-04-23T20:30:21.716Z,1.23
2023-04-23T20:32:49.500Z,1.33
2023-04-23T20:35:18.773Z,1.37
2023-04-23T20:37:46.663Z,3.73
2023-04-23T20:40:15.268Z,2.83
2023-04-23T20:42:42.982Z,3.33
2023-04-23T20:45:12.958Z,1.73
2023-04-23T20:47:41.252Z,2.80
2023-04-23T20:50:09.749Z,1.70
2023-04-23T20:52:38.844Z,1.93
2023-04-23T20:55:07.339Z,1.60
2023-04-23T20:57:35.354Z,3.80
2023-04-23T21:00:04.733Z,3.43
2023-04-23T21:02:32.588Z,1.57
2023-04-23T21:05:00.662Z,4.20
2023-04-23T21:07:28.414Z,1.70
2023-04-23T21:09:57.755Z,3.70
2023-04-23T21:12:25.820Z,2.00
2023-04-23T21:14:54.473Z,2.23
2023-04-23T21:17:24.172Z,2.93
2023-04-23T21:19:52.093Z,1.60
2023-04-23T21:22:19.839Z,3.03
2023-04-23T21:24:47.647Z,2.43
2023-04-23T21:27:21.359Z,2.30
2023-04-23T21:29:49.405Z,1.60
2023-04-23T21:32:17.592Z,2.03
2023-04-23T21:34:45.356Z,2.30
2023-04-23T21:37:13.133Z,3.70
2023-04-23T21:39:41.077Z,1.80
2023-04-23T21:42:09.034Z,3.47
2023-04-23T21:44:38.209Z,2.57
2023-04-23T21:47:06.904Z,1.63
2023-04-23T21:49:34.778Z,2.23
2023-04-23T21:52:02.522Z,3.93
2023-04-23T21:54:30.270Z,3.10
2023-04-23T21:56:58.097Z,2.47
2023-04-23T21:59:25.902Z,3.83
2023-04-23T22:01:55.045Z,2.60
2023-04-23T22:04:23.070Z,3.83
2023-04-23T22:06:51.096Z,2.80
2023-04-23T22:09:18.900Z,3.07
2023-04-23T22:12:01.202Z,3.20
2023-04-23T22:14:29.547Z,2.03
2023-04-23T22:16:59.289Z,3.00
2023-04-23T22:19:27.214Z,1.80
2023-04-23T22:21:55.247Z,2.53
2023-04-23T22:24:23.900Z,2.63
2023-04-23T22:26:51.732Z,2.10
2023-04-23T22:29:19.575Z,2.80
2023-04-23T22:31:47.379Z,2.00
2023-04-23T22:34:16.524Z,1.37
2023-04-23T22:36:44.357Z,1.57
2023-04-23T22:39:12.792Z,1.83
2023-04-23T22:41:40.586Z,1.73
2023-04-23T22:44:09.123Z,1.00
2023-04-23T22:46:37.164Z,1.27
2023-04-23T22:49:07.934Z,1.43
2023-04-23T22:51:38.636Z,1.27
2023-04-23T22:54:06.507Z,2.50
2023-04-23T22:56:34.283Z,1.77
2023-04-23T22:59:02.078Z,1.20
2023-04-23T23:01:29.864Z,2.77
2023-04-23T23:03:57.726Z,1.47
2023-04-23T23:06:26.397Z,4.40
2023-04-23T23:08:55.501Z,2.30
2023-04-23T23:11:23.263Z,1.17
2023-04-23T23:13:51.054Z,1.67
2023-04-23T23:16:18.882Z,1.13
2023-04-23T23:18:46.666Z,1.07
2023-04-23T23:21:14.491Z,3.47
2023-04-23T23:23:42.281Z,1.87
2023-04-23T23:26:11.387Z,2.27
2023-04-23T23:28:39.155Z,1.73
2023-04-23T23:31:07.346Z,7.77
2023-04-23T23:33:36.085Z,9.27
2023-04-23T23:36:03.930Z,7.03
2023-04-23T23:38:31.801Z,7.40
2023-04-23T23:40:59.631Z,5.50
2023-04-23T23:43:28.722Z,6.07
2023-04-23T23:45:56.472Z,4.23
2023-04-23T23:48:24.304Z,2.97
2023-04-23T23:50:52.058Z,2.40
2023-04-23T23:53:19.823Z,1.50
2023-04-23T23:55:47.558Z,1.87
2023-04-23T23:58:15.462Z,1.50
